Wheatfield, New York
Current Conditions -  °F | °C
As of 10:53 PM on Friday 19 Dec 2014 (Local Time) from KIAG Reporting Station
Overcast Overcast  
Wind Chill: 20°   Ceiling: 2400
Heat Index: 28°   Visibility: 10mi
Dew Point: 22°   Wind: 8mph
Humidity: 78%   Direction: 270°W
Pressure: 30.26"   Gusts: NA
Location:  43.1007°N, 78.9485°W
Report Text: KIAG 200353Z 27007KT 10SM OVC024 M02/M06 A3026 RMK AO2 SLP265 LAST T10221056
Loading
Personal Weather Stations






























Interactive Weather Map New forecast layout! Learn more

10-Day Weather Forecast

Advertisements
Track Severe Weather on mobile